Time;durP1;ratioP1;P1;durP2;ratioP2;P2;SDS_P1;SDS_P2;PMS_P1;PMS_P2;Temp;Humidity;BMP_temperature;BMP_pressure;BME280_temperature;BME280_humidity;BME280_pressure;Samples;Min_cycle;Max_cycle;Signal;HPM_P1;HPM_P2
2023/06/22 00:00:50;;;;;;;8.65;4.85;;;15.80;99.90;;;;;;5033599;28;20151;-42
2023/06/22 00:03:17;;;;;;;7.80;4.68;;;15.80;99.90;;;;;;5033373;28;20029;-48
2023/06/22 00:05:43;;;;;;;8.50;4.78;;;15.80;99.90;;;;;;5033726;28;20029;-52
2023/06/22 00:08:09;;;;;;;10.38;5.95;;;15.80;99.90;;;;;;5033374;28;20048;-47
2023/06/22 00:10:35;;;;;;;8.55;5.70;;;15.70;99.90;;;;;;5034149;28;20395;-53
2023/06/22 00:13:00;;;;;;;10.10;6.13;;;15.70;99.90;;;;;;5033177;28;20049;-42
2023/06/22 00:15:26;;;;;;;14.15;7.25;;;15.60;99.90;;;;;;5034036;28;20156;-45
2023/06/22 00:17:52;;;;;;;10.02;5.70;;;15.60;99.90;;;;;;5033378;28;20032;-46
2023/06/22 00:20:18;;;;;;;10.43;6.18;;;15.60;99.90;;;;;;5033312;28;20049;-54
2023/06/22 00:22:44;;;;;;;12.65;6.68;;;15.60;99.90;;;;;;5048218;28;20040;-48
2023/06/22 00:25:11;;;;;;;7.80;4.95;;;15.60;99.90;;;;;;5052407;28;20056;-49
2023/06/22 00:27:37;;;;;;;7.68;4.47;;;15.50;99.90;;;;;;5052392;28;20031;-52
2023/06/22 00:30:03;;;;;;;10.70;5.78;;;15.40;99.90;;;;;;5052237;28;20021;-48
2023/06/22 00:32:28;;;;;;;7.82;4.15;;;15.40;99.90;;;;;;5052212;28;20021;-43
2023/06/22 00:34:54;;;;;;;7.22;3.67;;;15.40;99.90;;;;;;5051611;28;20033;-44
2023/06/22 00:37:22;;;;;;;6.65;3.80;;;15.40;99.90;;;;;;5052194;28;20029;-55
2023/06/22 00:39:48;;;;;;;6.85;3.60;;;15.30;99.90;;;;;;5052044;28;20060;-49
2023/06/22 00:42:14;;;;;;;8.45;4.70;;;15.30;99.90;;;;;;5052159;28;20028;-41
2023/06/22 00:44:40;;;;;;;9.57;4.80;;;15.30;99.90;;;;;;5051890;28;20028;-46
2023/06/22 00:47:06;;;;;;;8.35;4.22;;;15.30;99.90;;;;;;5051919;28;20017;-54
2023/06/22 00:49:32;;;;;;;8.43;4.90;;;15.20;99.90;;;;;;5051660;28;20389;-44
2023/06/22 00:51:58;;;;;;;7.20;3.83;;;15.10;99.90;;;;;;5051866;28;20044;-53
2023/06/22 00:54:24;;;;;;;8.02;4.68;;;15.00;99.90;;;;;;5051842;28;20042;-51
2023/06/22 00:56:56;;;;;;;8.18;4.07;;;14.90;99.90;;;;;;5051698;28;20021;-50
2023/06/22 00:59:22;;;;;;;9.27;4.68;;;14.80;99.90;;;;;;5051984;28;20068;-44
2023/06/22 01:01:47;;;;;;;7.78;5.00;;;14.80;99.90;;;;;;5051564;28;20787;-41
2023/06/22 01:04:13;;;;;;;7.47;4.60;;;14.80;99.90;;;;;;5051482;28;20021;-44
2023/06/22 01:07:04;;;;;;;9.98;5.15;;;14.80;99.90;;;;;;5051553;28;20020;-50
2023/06/22 01:09:38;;;;;;;6.90;3.53;;;14.80;99.90;;;;;;5051560;28;20059;-45
2023/06/22 01:12:07;;;;;;;8.98;3.92;;;14.90;99.90;;;;;;5051174;28;20050;-46
2023/06/22 01:14:43;;;;;;;7.85;3.97;;;14.80;99.90;;;;;;5051341;28;20044;-41
2023/06/22 01:17:12;;;;;;;7.20;3.92;;;14.90;99.90;;;;;;5051325;28;20025;-51
2023/06/22 01:19:46;;;;;;;;;;;14.90;99.90;;;;;;5051644;28;20021;-50
2023/06/22 01:22:16;;;;;;;7.88;4.10;;;14.90;99.90;;;;;;5051289;28;20038;-44
2023/06/22 01:25:13;;;;;;;8.85;5.22;;;14.90;99.90;;;;;;5051159;28;20021;-48
2023/06/22 01:28:21;;;;;;;9.63;4.43;;;15.00;99.90;;;;;;5051230;28;20028;-45
2023/06/22 01:31:00;;;;;;;8.00;4.03;;;15.00;99.90;;;;;;5051112;28;20034;-46
2023/06/22 01:33:26;;;;;;;10.57;5.00;;;15.00;99.90;;;;;;5050577;28;20757;-47
2023/06/22 01:35:52;;;;;;;8.60;4.35;;;15.00;99.90;;;;;;5051014;28;20078;-49
2023/06/22 01:38:18;;;;;;;10.55;4.78;;;15.00;99.90;;;;;;5050998;28;20104;-47
2023/06/22 01:40:43;;;;;;;14.88;5.78;;;15.00;99.90;;;;;;5051093;28;20397;-49
2023/06/22 01:43:09;;;;;;;10.82;4.85;;;15.00;99.90;;;;;;5050896;28;20212;-49
2023/06/22 01:45:35;;;;;;;10.70;4.72;;;15.00;99.90;;;;;;5050769;28;20048;-43
2023/06/22 01:48:01;;;;;;;13.02;5.72;;;15.00;99.90;;;;;;5050324;28;20033;-50
2023/06/22 01:50:27;;;;;;;14.55;5.15;;;15.00;99.90;;;;;;5050495;28;20542;-46
2023/06/22 01:52:53;;;;;;;15.95;6.88;;;15.10;99.90;;;;;;5050667;28;20048;-41
2023/06/22 01:55:18;;;;;;;16.20;6.03;;;15.10;99.90;;;;;;5050611;28;20033;-50
2023/06/22 01:57:44;;;;;;;23.38;5.85;;;15.10;99.90;;;;;;5050964;28;20367;-46
2023/06/22 02:00:15;;;;;;;11.15;5.05;;;15.10;99.90;;;;;;5050513;28;20106;-45
2023/06/22 02:02:53;;;;;;;27.00;6.60;;;15.00;99.90;;;;;;5050765;28;20029;-43
2023/06/22 02:05:20;;;;;;;18.90;6.68;;;15.00;99.90;;;;;;5050471;28;20037;-45
2023/06/22 02:08:04;;;;;;;24.70;7.32;;;15.10;99.90;;;;;;5050133;28;20086;-46
2023/06/22 02:10:31;;;;;;;22.08;7.10;;;15.20;99.90;;;;;;5049819;28;20056;-47
2023/06/22 02:12:58;;;;;;;42.38;7.97;;;15.20;99.90;;;;;;5050399;28;20076;-44
2023/06/22 02:15:25;;;;;;;17.92;6.35;;;15.30;99.90;;;;;;5050424;28;20029;-44
2023/06/22 02:17:51;;;;;;;15.00;6.18;;;15.30;99.90;;;;;;5050542;28;20017;-49
2023/06/22 02:20:16;;;;;;;27.30;7.20;;;15.40;99.90;;;;;;5050157;28;20149;-47
2023/06/22 02:22:42;;;;;;;18.27;6.68;;;15.50;99.90;;;;;;5050117;28;20374;-49
2023/06/22 02:25:08;;;;;;;12.82;5.90;;;15.60;99.90;;;;;;5050300;28;20055;-46
2023/06/22 02:27:34;;;;;;;23.67;4.72;;;15.60;99.90;;;;;;5050097;28;20496;-42
2023/06/22 02:30:00;;;;;;;62.63;6.32;;;15.70;99.90;;;;;;5050211;28;20032;-44
2023/06/22 02:32:26;;;;;;;13.25;5.20;;;15.70;99.90;;;;;;5050128;28;20496;-47
2023/06/22 02:34:52;;;;;;;13.63;5.30;;;15.70;99.90;;;;;;5050065;28;20037;-47
2023/06/22 02:37:18;;;;;;;20.77;5.20;;;15.70;99.90;;;;;;5050234;28;20025;-44
2023/06/22 02:39:44;;;;;;;12.27;4.50;;;15.70;99.90;;;;;;5050210;28;20029;-47
2023/06/22 02:42:13;;;;;;;15.57;5.63;;;15.70;99.90;;;;;;5050069;28;20017;-44
2023/06/22 02:44:38;;;;;;;12.02;5.20;;;15.70;99.90;;;;;;5050484;28;20029;-56
2023/06/22 02:47:04;;;;;;;13.98;5.72;;;15.70;99.90;;;;;;5049934;28;20031;-47
2023/06/22 02:49:30;;;;;;;18.10;5.75;;;15.70;99.90;;;;;;5050046;28;20090;-44
2023/06/22 02:51:57;;;;;;;27.38;5.80;;;15.70;99.90;;;;;;5050123;28;20100;-41
2023/06/22 02:54:23;;;;;;;22.60;6.15;;;15.70;99.90;;;;;;5048834;28;20548;-42
2023/06/22 02:56:48;;;;;;;25.33;5.93;;;15.70;99.90;;;;;;5049971;28;20155;-50
2023/06/22 02:59:14;;;;;;;11.13;4.97;;;15.70;99.90;;;;;;5050060;28;20392;-49
2023/06/22 03:01:40;;;;;;;11.93;3.70;;;15.60;99.90;;;;;;5049657;28;20079;-50
2023/06/22 03:04:09;;;;;;;8.27;4.25;;;15.60;99.90;;;;;;5049056;28;20107;-49
2023/06/22 03:06:35;;;;;;;12.55;5.20;;;15.60;99.90;;;;;;5050169;28;20026;-49
2023/06/22 03:09:03;;;;;;;14.38;4.88;;;15.50;99.90;;;;;;5049907;28;20029;-46
2023/06/22 03:11:30;;;;;;;12.52;4.80;;;15.50;99.90;;;;;;5050068;28;20111;-49
2023/06/22 03:13:56;;;;;;;11.13;4.68;;;15.40;99.90;;;;;;5049600;28;20053;-42
2023/06/22 03:16:21;;;;;;;12.82;5.40;;;15.40;99.90;;;;;;5048482;28;20019;-43
2023/06/22 03:18:47;;;;;;;12.00;5.53;;;15.40;99.90;;;;;;5049777;28;20025;-47
2023/06/22 03:21:15;;;;;;;13.88;5.40;;;15.50;99.90;;;;;;5049729;28;20127;-51
2023/06/22 03:23:41;;;;;;;15.57;5.75;;;15.50;99.90;;;;;;5051927;28;20052;-48
2023/06/22 03:26:08;;;;;;;30.23;4.95;;;15.50;99.90;;;;;;5053353;28;20464;-46
2023/06/22 03:28:33;;;;;;;17.92;4.70;;;15.50;99.90;;;;;;5053393;28;20017;-46
2023/06/22 03:30:59;;;;;;;11.27;4.68;;;15.40;99.90;;;;;;5053421;28;20056;-46
2023/06/22 03:33:25;;;;;;;17.77;5.18;;;15.40;99.90;;;;;;5052989;28;20025;-45
2023/06/22 03:35:50;;;;;;;11.23;5.38;;;15.30;99.90;;;;;;5052321;28;20074;-43
2023/06/22 03:38:17;;;;;;;17.27;5.40;;;15.30;99.90;;;;;;5053111;28;20191;-48
2023/06/22 03:40:43;;;;;;;18.00;5.55;;;15.30;99.90;;;;;;5053317;28;20051;-42
2023/06/22 03:43:08;;;;;;;15.13;5.60;;;15.30;99.90;;;;;;5053058;28;20678;-43
2023/06/22 03:45:34;;;;;;;11.95;5.50;;;15.30;99.90;;;;;;5053145;28;20036;-45
2023/06/22 03:48:01;;;;;;;11.73;5.72;;;15.30;99.90;;;;;;5052452;28;20021;-45
2023/06/22 03:50:27;;;;;;;32.17;5.55;;;15.30;99.90;;;;;;5050962;28;20029;-45
2023/06/22 03:52:52;;;;;;;10.70;4.95;;;15.30;99.90;;;;;;5052374;28;20021;-43
2023/06/22 03:55:20;;;;;;;11.55;4.55;;;15.30;99.90;;;;;;5052764;28;20037;-50
2023/06/22 03:57:45;;;;;;;9.90;4.68;;;15.30;99.90;;;;;;5052806;28;20436;-50
2023/06/22 04:00:11;;;;;;;9.13;5.03;;;15.30;99.90;;;;;;5052716;28;20029;-52
2023/06/22 04:02:37;;;;;;;12.43;4.97;;;15.40;99.90;;;;;;5052641;28;20021;-46
2023/06/22 04:05:03;;;;;;;11.63;5.25;;;15.40;99.90;;;;;;5052367;28;20075;-45
2023/06/22 04:07:28;;;;;;;10.13;5.63;;;15.40;99.90;;;;;;5052178;28;20017;-47
2023/06/22 04:09:54;;;;;;;9.20;5.07;;;15.40;99.90;;;;;;5052763;28;20032;-43
2023/06/22 04:12:20;;;;;;;10.95;4.93;;;15.40;99.90;;;;;;5051655;28;20517;-45
2023/06/22 04:14:45;;;;;;;9.32;4.22;;;15.40;99.90;;;;;;5049321;28;20063;-45
2023/06/22 04:17:14;;;;;;;9.35;4.38;;;15.50;99.90;;;;;;5047682;28;20025;-47
2023/06/22 04:19:39;;;;;;;8.07;3.83;;;15.50;99.90;;;;;;5048228;28;20497;-45
2023/06/22 04:22:07;;;;;;;15.50;3.78;;;15.50;99.90;;;;;;5041072;28;20020;-47
2023/06/22 04:24:33;;;;;;;8.48;4.50;;;15.50;99.90;;;;;;5038794;28;20032;-48
2023/06/22 04:27:02;;;;;;;10.35;4.78;;;15.50;99.90;;;;;;5041043;28;20017;-45
2023/06/22 04:29:31;;;;;;;8.30;4.05;;;15.50;99.90;;;;;;5034165;28;20052;-46
2023/06/22 04:31:58;;;;;;;9.70;4.30;;;15.60;99.90;;;;;;5041791;28;20022;-47
2023/06/22 04:34:27;;;;;;;9.75;4.35;;;15.60;99.90;;;;;;5043775;28;20041;-47
2023/06/22 04:36:53;;;;;;;7.45;3.83;;;15.60;99.90;;;;;;5035239;28;20033;-43
2023/06/22 04:39:19;;;;;;;7.68;4.25;;;15.60;99.90;;;;;;5036871;28;20029;-42
2023/06/22 04:41:44;;;;;;;10.30;3.53;;;15.60;99.90;;;;;;5042075;28;20500;-43
2023/06/22 04:44:24;;;;;;;6.82;3.50;;;15.60;99.90;;;;;;5047862;28;20025;-46
2023/06/22 04:47:08;;;;;;;;;;;15.60;99.90;;;;;;5047281;28;20020;-48
2023/06/22 04:49:37;;;;;;;6.88;3.97;;;15.50;99.90;;;;;;5051262;28;19912;-45
2023/06/22 04:52:04;;;;;;;;;;;15.60;99.90;;;;;;5048627;28;20501;-42
2023/06/22 04:54:32;;;;;;;9.82;4.00;;;15.60;99.90;;;;;;5051370;28;19917;-42
2023/06/22 04:57:02;;;;;;;7.75;3.78;;;15.60;99.90;;;;;;5048464;28;20389;-42
2023/06/22 04:59:29;;;;;;;11.02;3.97;;;15.50;99.90;;;;;;5045206;28;20086;-42
2023/06/22 05:01:56;;;;;;;6.57;3.50;;;15.70;99.90;;;;;;5047386;28;20017;-46
2023/06/22 05:04:25;;;;;;;19.13;4.40;;;15.70;99.90;;;;;;5049787;28;20112;-46
2023/06/22 05:06:51;;;;;;;;;;;15.80;99.90;;;;;;5048381;28;20021;-43
2023/06/22 05:09:18;;;;;;;10.02;5.00;;;15.80;99.90;;;;;;5046234;28;19978;-42
2023/06/22 05:11:44;;;;;;;11.50;5.18;;;15.90;99.90;;;;;;5047127;28;20536;-46
2023/06/22 05:14:10;;;;;;;10.25;4.95;;;16.00;99.90;;;;;;5047397;28;20044;-46
2023/06/22 05:16:41;;;;;;;12.25;5.72;;;16.10;99.90;;;;;;5048117;28;20386;-45
2023/06/22 05:19:06;;;;;;;14.85;5.28;;;16.10;99.90;;;;;;5049948;28;20477;-46
2023/06/22 05:21:32;;;;;;;11.73;5.18;;;16.20;99.90;;;;;;5046792;28;20032;-43
2023/06/22 05:24:00;;;;;;;16.73;5.45;;;16.20;99.90;;;;;;5048940;28;20167;-45
2023/06/22 05:26:34;;;;;;;23.60;6.03;;;16.20;99.90;;;;;;5047710;28;20497;-43
2023/06/22 05:29:02;;;;;;;16.15;5.95;;;16.20;99.90;;;;;;5048008;28;20065;-46
2023/06/22 05:31:28;;;;;;;10.85;5.82;;;16.30;99.90;;;;;;5049787;28;20028;-45
2023/06/22 05:33:54;;;;;;;13.60;6.57;;;16.40;99.90;;;;;;5049464;28;20094;-45
2023/06/22 05:36:24;;;;;;;13.35;6.93;;;16.40;99.90;;;;;;5048301;28;20028;-44
2023/06/22 05:38:51;;;;;;;12.10;6.43;;;16.50;99.90;;;;;;5035892;28;20090;-49
2023/06/22 05:41:17;;;;;;;16.00;7.13;;;16.50;99.90;;;;;;5049421;28;20048;-50
2023/06/22 05:43:42;;;;;;;15.05;7.22;;;16.60;99.90;;;;;;5049502;28;20056;-47
2023/06/22 05:46:08;;;;;;;11.90;6.50;;;16.60;99.90;;;;;;5047015;28;20021;-43
2023/06/22 05:48:33;;;;;;;15.63;6.40;;;16.60;99.90;;;;;;5047674;28;20519;-48
2023/06/22 05:50:59;;;;;;;23.90;6.55;;;16.70;99.90;;;;;;5046456;28;20098;-51
2023/06/22 05:53:25;;;;;;;13.60;6.88;;;16.80;99.90;;;;;;5047423;28;20100;-42
2023/06/22 05:55:50;;;;;;;12.02;6.60;;;16.80;99.90;;;;;;5048021;28;20029;-46
2023/06/22 05:58:16;;;;;;;13.07;7.03;;;16.90;99.90;;;;;;5047430;28;20018;-44
2023/06/22 06:00:43;;;;;;;12.88;6.43;;;16.90;99.90;;;;;;5048345;28;20025;-42
2023/06/22 06:03:09;;;;;;;14.32;6.93;;;17.00;99.90;;;;;;5046499;28;20530;-42
2023/06/22 06:05:36;;;;;;;12.02;6.75;;;17.00;99.90;;;;;;5046439;28;20032;-45
2023/06/22 06:08:07;;;;;;;14.18;7.43;;;17.10;99.90;;;;;;5046309;28;20025;-43
2023/06/22 06:10:33;;;;;;;11.05;6.80;;;17.10;99.90;;;;;;5046406;28;20025;-50
2023/06/22 06:13:02;;;;;;;12.80;6.57;;;17.20;99.90;;;;;;5046055;28;20050;-50
2023/06/22 06:15:30;;;;;;;10.57;5.70;;;17.20;99.90;;;;;;5046501;28;20049;-44
2023/06/22 06:17:56;;;;;;;10.55;5.20;;;17.30;99.90;;;;;;5045815;28;20021;-43
2023/06/22 06:20:23;;;;;;;10.02;6.03;;;17.30;99.90;;;;;;5044709;28;20033;-43
2023/06/22 06:22:49;;;;;;;13.32;5.93;;;17.40;99.90;;;;;;5047162;28;20057;-44
2023/06/22 06:25:16;;;;;;;10.90;5.53;;;17.40;99.90;;;;;;5046422;28;20033;-42
2023/06/22 06:27:45;;;;;;;11.05;5.80;;;17.50;99.90;;;;;;5048842;28;20021;-42
2023/06/22 06:30:13;;;;;;;11.23;6.07;;;17.50;99.90;;;;;;5045644;28;20033;-46
2023/06/22 06:32:39;;;;;;;9.15;5.75;;;17.50;99.90;;;;;;5047222;28;20503;-48
2023/06/22 06:35:09;;;;;;;10.00;5.35;;;17.40;99.90;;;;;;5046936;28;20036;-46
2023/06/22 06:37:41;;;;;;;9.20;5.47;;;17.40;99.90;;;;;;5045406;28;20056;-51
2023/06/22 06:40:10;;;;;;;10.10;5.97;;;17.40;99.90;;;;;;5045927;28;20056;-53
2023/06/22 06:42:45;;;;;;;9.73;5.55;;;17.50;99.90;;;;;;5045736;28;20112;-47
2023/06/22 06:45:12;;;;;;;11.10;5.93;;;17.50;99.90;;;;;;5044651;28;20025;-54
2023/06/22 06:47:39;;;;;;;10.75;5.30;;;17.60;99.90;;;;;;5046502;28;20033;-49
2023/06/22 06:50:05;;;;;;;9.93;5.30;;;17.60;99.90;;;;;;5046329;28;20023;-50
2023/06/22 06:52:31;;;;;;;10.70;5.75;;;17.70;99.90;;;;;;5046176;28;20037;-46
2023/06/22 06:54:57;;;;;;;10.18;5.63;;;17.70;99.90;;;;;;5046108;28;20040;-46
2023/06/22 06:57:22;;;;;;;10.10;5.57;;;17.80;99.90;;;;;;5048977;28;20071;-44
2023/06/22 06:59:49;;;;;;;10.60;5.97;;;17.90;99.90;;;;;;5052426;28;20474;-45
2023/06/22 07:02:15;;;;;;;9.02;5.22;;;18.00;99.90;;;;;;5049738;28;20064;-49
2023/06/22 07:04:41;;;;;;;9.43;6.10;;;18.10;99.90;;;;;;5084389;28;20494;-42
2023/06/22 07:07:07;;;;;;;10.25;5.80;;;18.30;99.90;;;;;;5049852;28;20497;-49
2023/06/22 07:09:32;;;;;;;8.98;5.47;;;18.40;99.90;;;;;;5048956;28;20033;-42
2023/06/22 07:11:58;;;;;;;10.38;5.05;;;18.50;99.90;;;;;;5050569;28;20027;-45
2023/06/22 07:14:24;;;;;;;11.13;5.38;;;18.60;99.90;;;;;;5079651;28;20080;-50
2023/06/22 07:16:49;;;;;;;8.00;5.50;;;18.80;99.90;;;;;;5049859;28;20492;-51
2023/06/22 07:19:15;;;;;;;9.07;4.82;;;19.00;99.90;;;;;;5051137;28;20025;-49
2023/06/22 07:21:41;;;;;;;8.73;5.28;;;19.30;99.90;;;;;;5050803;28;20017;-46
2023/06/22 07:24:07;;;;;;;10.02;5.65;;;19.70;99.90;;;;;;5049505;28;20104;-43
2023/06/22 07:26:33;;;;;;;8.98;5.45;;;20.00;99.90;;;;;;5050623;28;20029;-48
2023/06/22 07:28:59;;;;;;;10.55;4.95;;;20.20;99.90;;;;;;5053283;28;20028;-43
2023/06/22 07:31:25;;;;;;;9.65;4.95;;;20.40;99.90;;;;;;5047829;28;20087;-48
2023/06/22 07:33:50;;;;;;;11.90;5.05;;;20.50;99.90;;;;;;5046386;28;20036;-42
2023/06/22 07:36:17;;;;;;;7.55;4.97;;;20.70;99.90;;;;;;5048827;28;20021;-49
2023/06/22 07:38:43;;;;;;;9.88;5.85;;;20.80;99.90;;;;;;5050061;28;20032;-52
2023/06/22 07:41:08;;;;;;;9.45;5.10;;;20.80;99.90;;;;;;5050801;28;20021;-46
2023/06/22 07:43:36;;;;;;;10.13;5.72;;;20.70;99.90;;;;;;5050219;28;20116;-42
2023/06/22 07:46:03;;;;;;;10.15;5.90;;;20.60;99.90;;;;;;5051442;28;20037;-45
2023/06/22 07:48:28;;;;;;;12.20;6.50;;;20.50;99.90;;;;;;5048601;28;20504;-43
2023/06/22 07:50:54;;;;;;;9.68;5.90;;;20.40;99.90;;;;;;5048887;28;20025;-45
2023/06/22 07:53:21;;;;;;;9.45;6.05;;;20.50;99.90;;;;;;5050690;28;20398;-43
2023/06/22 07:55:47;;;;;;;10.07;5.85;;;20.50;99.90;;;;;;5051547;28;20039;-44
2023/06/22 07:58:12;;;;;;;9.38;5.55;;;20.70;99.90;;;;;;5049513;28;20389;-43
2023/06/22 08:00:38;;;;;;;8.18;5.13;;;21.10;99.90;;;;;;5047669;28;20056;-47
2023/06/22 08:03:04;;;;;;;7.80;5.50;;;21.80;99.90;;;;;;5045554;28;20033;-43
2023/06/22 08:05:30;;;;;;;7.53;4.88;;;22.60;99.90;;;;;;5049270;28;20476;-45
2023/06/22 08:07:56;;;;;;;8.02;5.05;;;23.20;99.90;;;;;;5047391;28;20039;-51
2023/06/22 08:10:22;;;;;;;6.72;4.70;;;23.60;99.90;;;;;;5050057;28;20021;-52
2023/06/22 08:12:47;;;;;;;6.00;4.20;;;24.10;99.90;;;;;;5049347;28;20047;-44
2023/06/22 08:15:13;;;;;;;7.57;4.40;;;24.50;99.90;;;;;;5051167;28;20116;-49
2023/06/22 08:17:39;;;;;;;7.07;4.38;;;25.20;99.90;;;;;;5049822;28;20123;-49
2023/06/22 08:20:09;;;;;;;8.18;4.80;;;25.80;99.90;;;;;;5046147;28;20029;-55
2023/06/22 08:22:36;;;;;;;6.03;4.38;;;26.00;99.90;;;;;;5050520;28;20020;-51
2023/06/22 08:25:03;;;;;;;7.43;4.30;;;26.40;99.90;;;;;;5050850;28;20033;-47
2023/06/22 08:27:31;;;;;;;8.30;5.38;;;26.70;99.90;;;;;;5051384;28;20029;-45
2023/06/22 08:29:58;;;;;;;7.85;3.92;;;27.00;99.90;;;;;;5047135;28;20025;-47
2023/06/22 08:32:26;;;;;;;6.68;3.20;;;27.20;99.90;;;;;;5051490;28;20101;-52
2023/06/22 08:34:52;;;;;;;6.97;3.92;;;27.60;99.90;;;;;;5047683;28;20112;-45
2023/06/22 08:37:18;;;;;;;5.18;3.17;;;27.80;99.90;;;;;;5051767;28;20048;-50
2023/06/22 08:39:44;;;;;;;4.20;3.00;;;27.90;99.90;;;;;;5051286;28;20392;-48
2023/06/22 08:42:09;;;;;;;4.75;2.80;;;28.00;99.90;;;;;;5082649;28;20021;-51
2023/06/22 08:44:35;;;;;;;5.20;3.00;;;28.10;99.90;;;;;;5049873;28;20078;-48
2023/06/22 08:47:00;;;;;;;4.18;2.88;;;28.30;99.90;;;;;;5050323;28;20025;-54
2023/06/22 08:49:26;;;;;;;5.53;2.80;;;28.50;99.90;;;;;;5049703;28;20091;-56
2023/06/22 08:51:53;;;;;;;5.95;2.92;;;28.80;99.90;;;;;;5048558;28;20056;-54
2023/06/22 08:54:19;;;;;;;7.40;3.40;;;28.70;99.90;;;;;;5048973;28;20041;-57
2023/06/22 08:56:44;;;;;;;8.88;3.58;;;28.70;99.90;;;;;;5050054;28;20039;-48
2023/06/22 08:59:10;;;;;;;7.32;3.33;;;28.70;99.90;;;;;;5049215;28;20079;-47
2023/06/22 09:01:36;;;;;;;4.72;3.15;;;28.80;99.90;;;;;;5047737;28;20043;-50
2023/06/22 09:04:01;;;;;;;4.75;3.13;;;28.70;99.90;;;;;;5049888;28;20021;-46
2023/06/22 09:06:27;;;;;;;4.10;2.65;;;28.80;99.90;;;;;;5080823;28;20387;-56
2023/06/22 09:08:53;;;;;;;3.40;2.22;;;29.10;99.90;;;;;;5047603;28;20401;-53
2023/06/22 09:11:18;;;;;;;4.60;2.60;;;29.30;99.90;;;;;;5049429;28;20063;-56
2023/06/22 09:13:44;;;;;;;2.95;1.80;;;29.60;99.90;;;;;;5046810;28;20049;-58
2023/06/22 09:16:10;;;;;;;1.80;1.17;;;29.80;99.90;;;;;;5048689;28;20032;-45
2023/06/22 09:18:36;;;;;;;2.70;1.67;;;30.10;99.90;;;;;;5047710;28;20120;-44
2023/06/22 09:21:01;;;;;;;3.08;1.80;;;30.40;99.90;;;;;;5046732;28;20031;-44
2023/06/22 09:23:27;;;;;;;3.67;1.83;;;30.60;99.90;;;;;;5049730;28;20064;-53
2023/06/22 09:25:53;;;;;;;3.88;1.95;;;30.50;99.50;;;;;;5049268;28;20095;-54
2023/06/22 09:28:18;;;;;;;3.63;2.10;;;30.60;99.90;;;;;;5050236;28;20021;-52
2023/06/22 09:30:44;;;;;;;9.20;2.00;;;30.70;98.90;;;;;;5049455;28;20024;-52
2023/06/22 09:33:10;;;;;;;3.85;2.17;;;30.80;97.60;;;;;;5049826;28;20483;-54
2023/06/22 09:35:35;;;;;;;3.58;1.90;;;30.50;96.90;;;;;;5048140;28;20044;-52
2023/06/22 09:38:01;;;;;;;5.13;2.13;;;30.10;96.80;;;;;;5048341;28;20497;-46
2023/06/22 09:40:27;;;;;;;4.35;2.10;;;29.60;96.60;;;;;;5049487;28;20025;-52
2023/06/22 09:42:52;;;;;;;3.60;2.10;;;29.50;96.60;;;;;;5046943;28;20397;-56
2023/06/22 09:45:18;;;;;;;4.30;2.40;;;29.40;98.00;;;;;;5049366;28;20029;-55
2023/06/22 09:47:43;;;;;;;4.10;2.25;;;29.60;96.30;;;;;;5048986;28;20020;-53
2023/06/22 09:50:09;;;;;;;3.60;2.22;;;29.70;98.00;;;;;;5046237;28;20453;-43
2023/06/22 09:52:35;;;;;;;5.10;2.10;;;29.90;97.30;;;;;;5047198;28;20040;-56
2023/06/22 09:55:01;;;;;;;4.07;1.50;;;30.10;95.10;;;;;;5046901;28;20048;-55
2023/06/22 09:57:26;;;;;;;4.15;1.80;;;30.30;96.30;;;;;;5047358;28;20108;-48
2023/06/22 09:59:52;;;;;;;2.75;1.65;;;30.60;94.30;;;;;;5050408;28;20033;-56
2023/06/22 10:02:17;;;;;;;3.95;2.03;;;30.90;94.40;;;;;;5048497;28;20021;-45
2023/06/22 10:04:43;;;;;;;2.50;1.60;;;31.10;95.20;;;;;;5047390;28;20067;-49
2023/06/22 10:07:09;;;;;;;4.07;2.10;;;31.20;94.20;;;;;;5049208;28;20127;-43
2023/06/22 10:09:34;;;;;;;4.25;1.98;;;31.40;94.80;;;;;;5046779;28;20040;-57
2023/06/22 10:12:00;;;;;;;3.80;1.90;;;31.40;96.00;;;;;;5047795;28;20029;-48
2023/06/22 10:14:27;;;;;;;3.08;1.88;;;31.40;96.50;;;;;;5047745;28;20053;-49
2023/06/22 10:16:52;;;;;;;3.92;2.20;;;31.40;93.50;;;;;;5049288;28;20036;-44
2023/06/22 10:19:18;;;;;;;4.05;2.00;;;30.90;91.00;;;;;;5048001;28;20025;-46
2023/06/22 10:21:44;;;;;;;3.08;2.10;;;30.90;93.40;;;;;;5046952;28;20017;-53
2023/06/22 10:24:09;;;;;;;4.00;1.80;;;31.00;93.80;;;;;;5046910;28;20117;-49
2023/06/22 10:26:35;;;;;;;2.70;1.90;;;31.10;93.20;;;;;;5048484;28;20021;-52
2023/06/22 10:29:02;;;;;;;4.40;1.92;;;31.20;92.70;;;;;;5048645;28;20052;-52
2023/06/22 10:31:28;;;;;;;5.80;1.73;;;31.20;94.20;;;;;;5049727;28;20167;-44
2023/06/22 10:33:54;;;;;;;2.97;1.75;;;31.40;93.00;;;;;;5051148;28;20451;-46
2023/06/22 10:36:20;;;;;;;3.72;1.85;;;31.50;95.20;;;;;;5052326;28;20111;-47
2023/06/22 10:38:47;;;;;;;3.03;1.63;;;31.50;92.90;;;;;;5050734;28;20021;-48
2023/06/22 10:41:12;;;;;;;2.25;1.65;;;31.60;93.00;;;;;;5053504;28;20094;-45
2023/06/22 10:43:38;;;;;;;3.28;2.08;;;31.50;93.10;;;;;;5048939;28;20122;-48
2023/06/22 10:46:04;;;;;;;3.35;1.80;;;31.40;95.70;;;;;;5050488;28;20592;-44
2023/06/22 10:48:29;;;;;;;3.97;1.90;;;31.30;96.30;;;;;;5052385;28;20559;-50
2023/06/22 10:50:55;;;;;;;2.92;1.80;;;31.30;95.50;;;;;;5048592;28;20017;-45
2023/06/22 10:53:21;;;;;;;4.80;1.60;;;31.40;92.90;;;;;;5049977;28;20103;-45
2023/06/22 10:55:47;;;;;;;3.63;1.98;;;31.50;92.00;;;;;;5052248;28;20029;-50
2023/06/22 10:58:13;;;;;;;3.38;1.70;;;31.50;92.40;;;;;;5053268;28;20032;-50
2023/06/22 11:00:38;;;;;;;4.07;2.00;;;31.50;94.60;;;;;;5053013;28;20408;-53
2023/06/22 11:03:04;;;;;;;2.72;1.80;;;31.80;95.50;;;;;;5050882;28;20029;-51
2023/06/22 11:05:29;;;;;;;2.80;1.67;;;31.90;94.40;;;;;;5052043;28;20482;-53
2023/06/22 11:07:55;;;;;;;3.47;1.75;;;32.10;94.00;;;;;;5049241;28;20025;-44
2023/06/22 11:10:21;;;;;;;2.35;1.52;;;32.10;91.10;;;;;;5049162;28;20036;-50
2023/06/22 11:12:46;;;;;;;2.55;1.77;;;32.10;91.40;;;;;;5050125;28;20513;-45
2023/06/22 11:15:12;;;;;;;4.25;1.83;;;32.10;91.30;;;;;;5044286;28;20108;-45
2023/06/22 11:17:38;;;;;;;3.28;2.05;;;32.10;91.80;;;;;;5050620;28;20025;-51
2023/06/22 11:20:10;;;;;;;3.80;1.60;;;31.90;87.90;;;;;;5050104;28;20434;-51
2023/06/22 11:22:39;;;;;;;2.72;1.75;;;31.80;95.90;;;;;;5046343;28;20559;-45
2023/06/22 11:25:05;;;;;;;3.03;1.65;;;31.90;96.00;;;;;;5051735;28;20391;-50
2023/06/22 11:27:31;;;;;;;2.55;1.80;;;31.90;91.20;;;;;;5051030;28;20036;-53
2023/06/22 11:29:57;;;;;;;3.75;1.73;;;31.80;92.80;;;;;;5051940;28;20024;-46
2023/06/22 11:32:23;;;;;;;3.95;2.15;;;31.40;85.70;;;;;;5050774;28;20063;-47
2023/06/22 11:34:49;;;;;;;5.03;1.85;;;30.90;89.90;;;;;;5050050;28;20421;-51
2023/06/22 11:37:15;;;;;;;3.55;1.67;;;30.60;91.50;;;;;;5048873;28;20028;-43
2023/06/22 11:39:41;;;;;;;2.90;1.70;;;30.60;90.80;;;;;;5049854;28;20024;-47
2023/06/22 11:42:07;;;;;;;2.80;1.50;;;30.90;92.30;;;;;;5049774;28;20020;-51
2023/06/22 11:44:32;;;;;;;3.97;1.83;;;30.80;90.60;;;;;;5046391;28;20086;-47
2023/06/22 11:47:00;;;;;;;2.38;1.42;;;30.40;86.40;;;;;;5049826;28;20067;-45
2023/06/22 11:49:26;;;;;;;2.75;1.80;;;30.40;94.20;;;;;;5048733;28;20033;-52
2023/06/22 11:51:52;;;;;;;3.42;1.67;;;30.60;90.80;;;;;;5049278;28;20056;-50
2023/06/22 11:54:18;;;;;;;3.65;1.90;;;30.80;89.10;;;;;;5050228;28;20087;-47
2023/06/22 11:56:43;;;;;;;2.50;1.70;;;31.00;91.10;;;;;;5051332;28;20013;-43
2023/06/22 11:59:09;;;;;;;3.20;1.90;;;31.10;92.60;;;;;;5051215;28;20134;-48
2023/06/22 12:01:34;;;;;;;2.88;1.80;;;30.70;92.60;;;;;;5048634;28;20036;-43
2023/06/22 12:04:00;;;;;;;2.38;1.45;;;30.10;93.50;;;;;;5048086;28;20041;-45
2023/06/22 12:06:26;;;;;;;3.08;1.60;;;29.80;91.00;;;;;;5049614;28;20026;-50
2023/06/22 12:08:51;;;;;;;3.53;1.85;;;29.90;93.50;;;;;;5046863;28;20028;-49
2023/06/22 12:11:17;;;;;;;2.72;1.42;;;30.20;92.10;;;;;;5052334;28;20021;-47
2023/06/22 12:13:42;;;;;;;2.75;1.40;;;30.40;91.50;;;;;;5047434;28;20063;-45
2023/06/22 12:16:08;;;;;;;2.03;1.38;;;30.50;92.00;;;;;;5045556;28;20025;-48
2023/06/22 12:18:34;;;;;;;1.88;1.25;;;30.50;88.10;;;;;;5047787;28;20033;-54
2023/06/22 12:20:59;;;;;;;2.40;1.50;;;30.70;92.20;;;;;;5050983;28;20059;-45
2023/06/22 12:23:25;;;;;;;11.02;1.77;;;30.80;91.90;;;;;;5049558;28;20025;-46
2023/06/22 12:25:50;;;;;;;3.78;1.60;;;30.80;85.90;;;;;;5050755;28;20025;-49
2023/06/22 12:28:16;;;;;;;2.88;1.30;;;30.30;84.30;;;;;;5049308;28;20021;-45
2023/06/22 12:30:42;;;;;;;3.05;1.73;;;29.60;83.30;;;;;;5050688;28;20029;-54
2023/06/22 12:33:08;;;;;;;2.08;1.50;;;29.50;90.60;;;;;;5048859;28;20099;-52
2023/06/22 12:35:34;;;;;;;3.33;1.45;;;29.40;89.60;;;;;;5048788;28;20055;-42
2023/06/22 12:38:00;;;;;;;2.53;1.58;;;29.00;88.80;;;;;;5047796;28;20039;-50
2023/06/22 12:40:25;;;;;;;1.95;1.30;;;28.50;92.40;;;;;;5047656;28;20055;-43